createdAt,value
2022-12-15T00:02:25.546Z,10.85
2022-12-15T00:05:11.778Z,12.57
2022-12-15T00:07:57.929Z,11.95
2022-12-15T00:10:43.985Z,10.77
2022-12-15T00:13:31.386Z,13.57
2022-12-15T00:16:17.851Z,12.65
2022-12-15T00:19:05.006Z,13.20
2022-12-15T00:21:51.315Z,12.18
2022-12-15T00:24:40.448Z,9.60
2022-12-15T00:27:27.672Z,10.15
2022-12-15T00:30:13.800Z,12.07
2022-12-15T00:32:59.943Z,12.52
2022-12-15T00:35:45.966Z,13.30
2022-12-15T00:38:33.116Z,12.25
2022-12-15T00:41:05.548Z,12.82
2022-12-15T00:43:34.105Z,14.13
2022-12-15T00:46:20.761Z,13.63
2022-12-15T00:48:48.305Z,16.63
2022-12-15T00:51:16.040Z,9.07
2022-12-15T00:54:02.151Z,14.32
2022-12-15T00:56:47.863Z,14.30
2022-12-15T00:59:34.704Z,13.75
2022-12-15T01:02:21.522Z,13.23
2022-12-15T01:05:07.807Z,14.02
2022-12-15T01:07:53.597Z,13.48
2022-12-15T01:10:39.822Z,16.17
2022-12-15T01:13:25.638Z,13.98
2022-12-15T01:16:11.641Z,15.10
2022-12-15T01:18:57.515Z,13.80
2022-12-15T01:21:25.865Z,14.23
2022-12-15T01:23:53.781Z,15.27
2022-12-15T01:26:21.440Z,15.13
2022-12-15T01:28:48.783Z,16.33
2022-12-15T01:31:16.073Z,14.07
2022-12-15T01:33:43.913Z,14.85
2022-12-15T01:36:11.495Z,13.52
2022-12-15T01:38:38.732Z,12.02
2022-12-15T01:41:06.886Z,15.25
2022-12-15T01:43:35.749Z,16.67
2022-12-15T01:46:09.329Z,15.27
2022-12-15T01:48:39.641Z,15.65
2022-12-15T01:51:15.778Z,15.95
2022-12-15T01:54:03.660Z,14.30
2022-12-15T01:56:37.361Z,16.48
2022-12-15T01:59:05.670Z,16.38
2022-12-15T02:01:33.183Z,16.42
2022-12-15T02:04:00.487Z,18.33
2022-12-15T02:06:29.310Z,15.63
2022-12-15T02:08:58.139Z,11.30
2022-12-15T02:11:37.585Z,16.80
2022-12-15T02:14:09.387Z,14.93
2022-12-15T02:17:09.027Z,14.75
2022-12-15T02:19:48.345Z,16.58
2022-12-15T02:22:19.899Z,16.55
2022-12-15T02:24:53.219Z,16.95
2022-12-15T02:27:25.462Z,15.20
2022-12-15T02:29:52.723Z,14.98
2022-12-15T02:32:25.944Z,18.50
2022-12-15T02:34:59.688Z,14.95
2022-12-15T02:37:34.462Z,15.82
2022-12-15T02:40:02.148Z,16.08
2022-12-15T02:42:30.686Z,18.20
2022-12-15T02:45:04.207Z,17.52
2022-12-15T02:47:34.570Z,15.95
2022-12-15T02:50:04.802Z,14.65
2022-12-15T02:52:50.874Z,15.73
2022-12-15T02:55:21.711Z,14.25
2022-12-15T02:57:51.760Z,16.83
2022-12-15T03:00:19.746Z,16.40
2022-12-15T03:02:50.837Z,17.33
2022-12-15T03:05:19.267Z,18.15
2022-12-15T03:07:49.754Z,15.38
2022-12-15T03:10:17.185Z,16.27
2022-12-15T03:12:45.212Z,17.23
2022-12-15T03:15:12.735Z,17.88
2022-12-15T03:17:40.280Z,15.95
2022-12-15T03:20:08.898Z,16.48
2022-12-15T03:22:36.762Z,15.27
2022-12-15T03:25:04.511Z,15.55
2022-12-15T03:27:31.860Z,14.82
2022-12-15T03:29:59.225Z,13.50
2022-12-15T03:32:26.481Z,15.48
2022-12-15T03:34:53.707Z,15.98
2022-12-15T03:37:21.033Z,15.45
2022-12-15T03:39:48.350Z,14.55
2022-12-15T03:42:35.557Z,14.63
2022-12-15T03:45:04.085Z,13.77
2022-12-15T03:47:32.163Z,13.95
2022-12-15T03:49:59.479Z,12.23
2022-12-15T03:52:26.765Z,13.75
2022-12-15T03:54:53.985Z,14.60
2022-12-15T03:57:21.284Z,14.52
2022-12-15T03:59:48.527Z,14.13
2022-12-15T04:02:15.886Z,10.38
2022-12-15T04:04:43.542Z,11.05
2022-12-15T04:07:10.844Z,14.27
2022-12-15T04:09:38.410Z,14.55
2022-12-15T04:12:05.839Z,13.57
2022-12-15T04:14:33.223Z,14.88
2022-12-15T04:17:00.536Z,13.20
2022-12-15T04:19:46.374Z,14.18
2022-12-15T04:22:17.757Z,14.50
2022-12-15T04:25:03.793Z,14.25
2022-12-15T04:27:49.891Z,15.93
2022-12-15T04:30:35.834Z,12.98
2022-12-15T04:33:26.317Z,13.98
2022-12-15T04:36:15.119Z,11.73
2022-12-15T04:39:01.261Z,15.05
2022-12-15T04:41:47.326Z,13.07
2022-12-15T04:44:33.442Z,9.55
2022-12-15T04:47:19.270Z,12.90
2022-12-15T04:50:05.304Z,14.52
2022-12-15T04:52:51.411Z,15.05
2022-12-15T04:55:37.551Z,13.93
2022-12-15T04:58:24.363Z,13.82
2022-12-15T05:01:10.450Z,12.10
2022-12-15T05:03:56.470Z,13.57
2022-12-15T05:06:42.512Z,11.73
2022-12-15T05:09:28.361Z,15.10
2022-12-15T05:12:14.446Z,16.02
2022-12-15T05:15:00.685Z,15.02
2022-12-15T05:17:47.014Z,13.00
2022-12-15T05:20:33.005Z,10.93
2022-12-15T05:23:19.195Z,12.77
2022-12-15T05:26:05.172Z,10.73
2022-12-15T05:28:51.357Z,11.38
2022-12-15T05:31:37.537Z,12.55
2022-12-15T05:34:05.921Z,12.68
2022-12-15T05:36:33.492Z,12.60
2022-12-15T05:39:00.760Z,13.15
2022-12-15T05:41:27.992Z,14.27
2022-12-15T05:43:55.276Z,13.68
2022-12-15T05:46:22.613Z,13.85
2022-12-15T05:48:49.972Z,14.40
2022-12-15T05:51:17.273Z,11.60
2022-12-15T05:53:44.532Z,11.73
2022-12-15T05:56:13.360Z,13.77
2022-12-15T05:58:45.072Z,13.25
2022-12-15T06:01:14.205Z,11.20
2022-12-15T06:03:41.740Z,12.07
2022-12-15T06:06:09.610Z,12.10
2022-12-15T06:08:37.861Z,12.52
2022-12-15T06:11:05.256Z,12.77
2022-12-15T06:13:36.616Z,11.40
2022-12-15T06:16:05.550Z,11.48
2022-12-15T06:18:34.061Z,12.63
2022-12-15T06:21:02.453Z,13.93
2022-12-15T06:23:30.114Z,13.88
2022-12-15T06:25:57.848Z,14.73
2022-12-15T06:28:25.160Z,11.70
2022-12-15T06:30:56.684Z,13.68
2022-12-15T06:33:24.131Z,12.95
2022-12-15T06:35:51.448Z,13.40
2022-12-15T06:38:18.688Z,12.02
2022-12-15T06:40:46.447Z,15.30
2022-12-15T06:43:13.671Z,13.32
2022-12-15T06:45:40.996Z,11.40
2022-12-15T06:48:08.256Z,12.48
2022-12-15T06:50:35.653Z,15.15
2022-12-15T06:53:02.939Z,14.07
2022-12-15T06:55:30.212Z,13.77
2022-12-15T06:57:57.503Z,12.80
2022-12-15T07:00:25.121Z,11.52
2022-12-15T07:02:52.497Z,10.35
2022-12-15T07:05:20.056Z,14.20
2022-12-15T07:07:47.311Z,15.15
2022-12-15T07:10:14.606Z,12.50
2022-12-15T07:12:41.858Z,13.25
2022-12-15T07:15:09.288Z,11.95
2022-12-15T07:17:37.090Z,14.73
2022-12-15T07:20:05.302Z,13.43
2022-12-15T07:22:32.534Z,12.65
2022-12-15T07:24:59.788Z,14.98
2022-12-15T07:27:27.177Z,12.45
2022-12-15T07:29:54.450Z,14.70
2022-12-15T07:32:21.802Z,14.18
2022-12-15T07:34:49.388Z,15.13
2022-12-15T07:37:17.143Z,13.07
2022-12-15T07:39:44.786Z,11.55
2022-12-15T07:42:12.167Z,14.48
2022-12-15T07:44:39.519Z,15.20
2022-12-15T07:47:06.758Z,15.77
2022-12-15T07:49:34.350Z,16.00
2022-12-15T07:52:01.609Z,15.32
2022-12-15T07:54:29.328Z,16.27
2022-12-15T07:56:56.566Z,14.35
2022-12-15T07:59:23.799Z,13.70
2022-12-15T08:01:51.413Z,16.23
2022-12-15T08:04:18.955Z,14.43
2022-12-15T08:06:46.210Z,14.38
2022-12-15T08:09:13.467Z,13.55
2022-12-15T08:11:40.730Z,10.38
2022-12-15T08:14:15.091Z,12.82
2022-12-15T08:16:45.452Z,12.35
2022-12-15T08:19:13.817Z,12.40
2022-12-15T08:21:42.168Z,10.82
2022-12-15T08:24:10.198Z,10.02
2022-12-15T08:26:40.670Z,11.23
2022-12-15T08:31:55.913Z,9.80
2022-12-15T08:34:23.330Z,10.98
2022-12-15T08:36:50.633Z,11.38
2022-12-15T08:39:17.945Z,12.70
2022-12-15T08:41:45.443Z,10.90
2022-12-15T08:44:12.756Z,10.70
2022-12-15T08:46:40.072Z,10.50
2022-12-15T08:49:08.764Z,10.35
2022-12-15T08:51:36.021Z,10.18
2022-12-15T08:54:03.406Z,10.30
2022-12-15T08:56:30.934Z,11.63
2022-12-15T08:59:01.588Z,11.65
2022-12-15T09:01:30.106Z,10.57
2022-12-15T09:03:58.095Z,11.23
2022-12-15T09:06:29.572Z,10.13
2022-12-15T09:08:57.851Z,10.65
2022-12-15T09:11:25.837Z,11.68
2022-12-15T09:13:53.207Z,10.57
2022-12-15T09:16:20.719Z,10.13
2022-12-15T09:18:51.650Z,10.00
2022-12-15T09:21:22.328Z,9.70
2022-12-15T09:23:51.998Z,10.45
2022-12-15T09:26:20.426Z,10.77
2022-12-15T09:28:50.633Z,10.27
2022-12-15T09:31:19.282Z,10.90
2022-12-15T09:33:47.215Z,9.68
2022-12-15T09:36:14.554Z,10.13
2022-12-15T09:38:42.631Z,10.40
2022-12-15T09:41:15.715Z,10.52
2022-12-15T09:43:52.314Z,11.18
2022-12-15T09:46:38.720Z,10.80
2022-12-15T09:49:12.088Z,10.13
2022-12-15T09:51:42.304Z,10.48
2022-12-15T09:54:11.319Z,10.45
2022-12-15T09:56:43.242Z,11.35
2022-12-15T09:59:25.413Z,10.10
2022-12-15T10:02:13.072Z,10.88
2022-12-15T10:04:58.536Z,9.70
2022-12-15T10:07:32.854Z,10.45
2022-12-15T10:10:00.155Z,10.68
2022-12-15T10:12:31.223Z,10.85
2022-12-15T10:15:09.281Z,11.38
2022-12-15T10:17:46.184Z,11.32
2022-12-15T10:20:29.244Z,10.80
2022-12-15T10:22:58.265Z,10.35
2022-12-15T10:25:30.331Z,11.07
2022-12-15T10:28:04.102Z,10.73
2022-12-15T10:30:31.464Z,10.60
2022-12-15T10:33:12.510Z,12.45
2022-12-15T10:38:31.801Z,12.05
2022-12-15T10:41:09.360Z,12.32
2022-12-15T10:43:38.235Z,12.45
2022-12-15T10:46:19.254Z,12.05
2022-12-15T10:51:37.229Z,13.55
2022-12-15T10:54:10.671Z,14.27
2022-12-15T10:56:51.922Z,16.35
2022-12-15T10:59:23.686Z,13.93
2022-12-15T11:01:51.480Z,14.20
2022-12-15T11:04:34.505Z,12.32
2022-12-15T11:07:03.891Z,12.30
2022-12-15T11:09:35.432Z,11.85
2022-12-15T11:12:21.656Z,11.70
2022-12-15T11:14:50.942Z,11.77
2022-12-15T11:17:19.874Z,11.73
2022-12-15T11:19:47.132Z,11.20
2022-12-15T11:22:32.438Z,12.80
2022-12-15T11:25:19.941Z,13.18
2022-12-15T11:27:48.083Z,11.13
2022-12-15T11:30:15.977Z,13.13
2022-12-15T11:32:53.257Z,13.10
2022-12-15T11:35:28.485Z,12.10
2022-12-15T11:38:01.666Z,13.15
2022-12-15T11:40:41.951Z,13.43
2022-12-15T11:43:12.313Z,12.10
2022-12-15T11:45:39.521Z,11.95
2022-12-15T11:48:13.998Z,11.60
2022-12-15T11:50:54.239Z,12.52
2022-12-15T11:53:33.496Z,10.23
2022-12-15T11:56:01.079Z,13.60
2022-12-15T11:59:00.606Z,12.82
2022-12-15T12:01:36.787Z,12.45
2022-12-15T12:04:19.541Z,12.70
2022-12-15T12:07:01.321Z,13.60
2022-12-15T12:09:39.239Z,13.32
2022-12-15T12:12:45.232Z,13.80
2022-12-15T12:15:15.484Z,14.38
2022-12-15T12:17:42.717Z,13.93
2022-12-15T12:20:15.451Z,13.30
2022-12-15T12:22:45.401Z,13.25
2022-12-15T12:25:15.622Z,13.43
2022-12-15T12:28:01.610Z,12.32
2022-12-15T12:30:32.839Z,12.98
2022-12-15T12:33:02.919Z,13.80
2022-12-15T12:35:49.033Z,13.90
2022-12-15T12:38:20.335Z,15.40
2022-12-15T12:41:03.030Z,12.43
2022-12-15T12:43:35.288Z,13.48
2022-12-15T12:46:05.305Z,14.85
2022-12-15T12:48:37.865Z,14.70
2022-12-15T12:51:25.601Z,14.02
2022-12-15T12:53:53.281Z,14.68
2022-12-15T12:56:40.860Z,14.35
2022-12-15T12:59:26.891Z,13.82
2022-12-15T13:01:55.326Z,14.30
2022-12-15T13:04:43.043Z,15.15
2022-12-15T13:07:29.620Z,13.75
2022-12-15T13:10:09.099Z,16.67
2022-12-15T13:12:53.963Z,16.25
2022-12-15T13:15:30.562Z,13.15
2022-12-15T13:18:09.053Z,11.95
2022-12-15T13:20:37.774Z,13.85
2022-12-15T13:23:20.126Z,14.35
2022-12-15T13:26:07.935Z,13.85
2022-12-15T13:28:40.795Z,13.57
2022-12-15T13:31:17.356Z,12.82
2022-12-15T13:33:45.798Z,13.43
2022-12-15T13:36:34.687Z,13.80
2022-12-15T13:39:01.926Z,13.98
2022-12-15T13:41:29.238Z,13.52
2022-12-15T13:43:58.145Z,12.27
2022-12-15T13:46:29.872Z,13.20
2022-12-15T13:49:15.014Z,14.02
2022-12-15T13:51:51.630Z,14.13
2022-12-15T13:54:27.039Z,13.18
2022-12-15T13:56:54.343Z,13.18
2022-12-15T13:59:40.544Z,13.68
2022-12-15T14:02:26.236Z,13.52
2022-12-15T14:05:12.321Z,14.30
2022-12-15T14:07:40.047Z,16.42
2022-12-15T14:10:14.424Z,15.38
2022-12-15T14:12:41.729Z,15.60
2022-12-15T14:15:16.026Z,15.32
2022-12-15T14:17:47.054Z,12.35
2022-12-15T14:20:24.314Z,15.90
2022-12-15T14:22:52.612Z,16.40
2022-12-15T14:25:24.168Z,18.10
2022-12-15T14:27:51.473Z,17.10
2022-12-15T14:30:19.209Z,18.52
2022-12-15T14:32:48.599Z,17.35
2022-12-15T14:35:26.636Z,19.13
2022-12-15T14:37:56.445Z,18.48
2022-12-15T14:40:28.423Z,17.98
2022-12-15T14:42:56.342Z,18.58
2022-12-15T14:45:27.997Z,20.02
2022-12-15T14:48:39.061Z,17.42
2022-12-15T14:50:48.693Z,17.70
2022-12-15T14:53:18.561Z,16.60
2022-12-15T14:55:46.446Z,14.48
2022-12-15T14:58:25.892Z,17.13
2022-12-15T15:00:54.368Z,16.67
2022-12-15T15:03:25.472Z,16.63
2022-12-15T15:05:53.222Z,15.95
2022-12-15T15:08:25.966Z,17.15
2022-12-15T15:10:54.303Z,18.38
2022-12-15T15:13:23.907Z,19.15
2022-12-15T15:16:05.136Z,20.33
2022-12-15T15:18:32.717Z,17.27
2022-12-15T15:21:05.365Z,19.45
2022-12-15T15:23:32.617Z,18.83
2022-12-15T15:26:06.009Z,18.40
2022-12-15T15:28:37.542Z,19.23
2022-12-15T15:31:24.917Z,14.90
2022-12-15T15:33:53.050Z,18.25
2022-12-15T15:36:20.521Z,17.42
2022-12-15T15:38:47.879Z,17.13
2022-12-15T15:41:15.094Z,17.35
2022-12-15T15:43:42.684Z,16.77
2022-12-15T15:46:18.465Z,16.88
2022-12-15T15:48:47.453Z,17.95
2022-12-15T15:51:14.705Z,16.63
2022-12-15T15:53:42.129Z,17.00
2022-12-15T15:56:11.374Z,17.85
2022-12-15T15:58:38.980Z,17.40
2022-12-15T16:01:12.767Z,17.40
2022-12-15T16:03:40.946Z,17.60
2022-12-15T16:06:15.479Z,18.15
2022-12-15T16:08:43.422Z,17.50
2022-12-15T16:11:13.936Z,15.10
2022-12-15T16:16:15.884Z,17.05
2022-12-15T16:18:43.208Z,17.38
2022-12-15T16:21:14.077Z,18.73
2022-12-15T16:23:42.168Z,18.35
2022-12-15T16:26:13.738Z,19.88
2022-12-15T16:28:41.060Z,19.33
2022-12-15T16:31:28.429Z,16.85
2022-12-15T16:33:55.801Z,18.85
2022-12-15T16:36:23.147Z,17.25
2022-12-15T16:38:50.729Z,18.33
2022-12-15T16:41:18.522Z,18.75
2022-12-15T16:43:48.110Z,19.17
2022-12-15T16:46:15.860Z,20.10
2022-12-15T16:48:43.541Z,18.33
2022-12-15T16:51:19.101Z,19.63
2022-12-15T16:53:46.485Z,16.33
2022-12-15T16:56:15.901Z,18.63
2022-12-15T16:58:48.508Z,20.25
2022-12-15T17:01:16.137Z,20.48
2022-12-15T17:03:45.995Z,19.58
2022-12-15T17:06:14.765Z,19.50
2022-12-15T17:08:47.059Z,20.88
2022-12-15T17:11:21.893Z,19.83
2022-12-15T17:13:51.344Z,17.33
2022-12-15T17:16:23.113Z,19.55
2022-12-15T17:18:50.568Z,19.63
2022-12-15T17:21:20.353Z,18.30
2022-12-15T17:23:50.013Z,20.17
2022-12-15T17:26:29.125Z,21.47
2022-12-15T17:28:58.333Z,19.17
2022-12-15T17:31:31.522Z,21.10
2022-12-15T17:34:02.718Z,21.25
2022-12-15T17:36:30.166Z,20.02
2022-12-15T17:38:58.760Z,17.85
2022-12-15T17:41:57.935Z,18.38
2022-12-15T17:44:34.750Z,16.15
2022-12-15T17:47:03.151Z,20.67
2022-12-15T17:49:35.578Z,16.08
2022-12-15T17:52:05.655Z,21.45
2022-12-15T17:54:34.329Z,20.50
2022-12-15T17:57:01.625Z,19.25
2022-12-15T17:59:28.894Z,19.08
2022-12-15T18:01:57.439Z,20.30
2022-12-15T18:04:24.906Z,20.20
2022-12-15T18:07:02.000Z,18.77
2022-12-15T18:09:30.041Z,18.58
2022-12-15T18:11:57.618Z,19.42
2022-12-15T18:14:24.946Z,20.02
2022-12-15T18:16:52.364Z,20.50
2022-12-15T18:19:20.291Z,20.80
2022-12-15T18:21:47.557Z,20.35
2022-12-15T18:24:17.060Z,21.55
2022-12-15T18:26:44.750Z,18.93
2022-12-15T18:29:17.839Z,17.00
2022-12-15T18:31:46.973Z,21.05
2022-12-15T18:34:15.280Z,21.75
2022-12-15T18:36:43.071Z,20.42
2022-12-15T18:39:18.717Z,20.83
2022-12-15T18:41:46.383Z,19.27
2022-12-15T18:44:22.925Z,21.45
2022-12-15T18:46:50.271Z,17.90
2022-12-15T18:49:18.309Z,20.75
2022-12-15T18:51:46.517Z,19.38
2022-12-15T18:54:20.734Z,20.60
2022-12-15T18:56:48.238Z,18.63
2022-12-15T18:59:17.321Z,19.48
2022-12-15T19:01:45.952Z,21.20
2022-12-15T19:04:13.666Z,20.05
2022-12-15T19:06:41.184Z,22.60
2022-12-15T19:09:16.316Z,20.58
2022-12-15T19:12:04.533Z,21.10
2022-12-15T19:14:40.689Z,22.10
2022-12-15T19:17:29.244Z,20.92
2022-12-15T19:20:15.332Z,20.35
2022-12-15T19:22:43.003Z,22.40
2022-12-15T19:25:18.231Z,23.15
2022-12-15T19:27:48.153Z,21.92
2022-12-15T19:30:16.679Z,20.02
2022-12-15T19:32:43.988Z,21.60
2022-12-15T19:35:12.120Z,22.45
2022-12-15T19:37:42.672Z,21.90
2022-12-15T19:42:37.829Z,15.40
2022-12-15T19:45:16.186Z,21.10
2022-12-15T19:47:43.557Z,20.50
2022-12-15T19:50:15.023Z,21.92
2022-12-15T19:52:42.929Z,21.40
2022-12-15T19:55:17.080Z,23.27
2022-12-15T19:57:44.922Z,22.02
2022-12-15T20:00:21.737Z,23.00
2022-12-15T20:02:51.877Z,20.73
2022-12-15T20:05:20.020Z,23.85
2022-12-15T20:07:48.010Z,24.10
2022-12-15T20:10:24.440Z,22.48
2022-12-15T20:12:55.154Z,23.83
2022-12-15T20:15:23.814Z,26.08
2022-12-15T20:17:56.106Z,23.17
2022-12-15T20:20:24.250Z,22.73
2022-12-15T20:22:53.877Z,24.92
2022-12-15T20:25:29.599Z,22.87
2022-12-15T20:27:57.494Z,22.98
2022-12-15T20:30:26.231Z,25.27
2022-12-15T20:32:53.782Z,23.67
2022-12-15T20:35:21.907Z,22.52
2022-12-15T20:37:50.025Z,24.13
2022-12-15T20:40:17.316Z,24.75
2022-12-15T20:42:44.938Z,23.70
2022-12-15T20:45:16.661Z,23.73
2022-12-15T20:47:45.822Z,22.90
2022-12-15T20:50:24.564Z,23.90
2022-12-15T20:52:51.851Z,19.17
2022-12-15T20:55:21.355Z,24.13
2022-12-15T20:57:48.736Z,25.33
2022-12-15T21:00:17.957Z,23.52
2022-12-15T21:02:45.905Z,23.48
2022-12-15T21:05:17.838Z,21.95
2022-12-15T21:07:45.606Z,24.40
2022-12-15T21:10:14.169Z,23.05
2022-12-15T21:12:42.036Z,23.08
2022-12-15T21:15:19.606Z,23.90
2022-12-15T21:17:51.056Z,24.27
2022-12-15T21:20:24.430Z,24.10
2022-12-15T21:22:51.694Z,22.95
2022-12-15T21:25:26.913Z,24.20
2022-12-15T21:27:54.136Z,23.17
2022-12-15T21:30:23.166Z,26.13
2022-12-15T21:32:53.503Z,25.75
2022-12-15T21:35:21.039Z,24.17
2022-12-15T21:37:51.739Z,26.15
2022-12-15T21:40:28.775Z,23.83
2022-12-15T21:42:56.437Z,21.27
2022-12-15T21:45:25.014Z,22.95
2022-12-15T21:48:11.592Z,24.25
2022-12-15T21:50:39.653Z,24.45
2022-12-15T21:53:07.291Z,24.98
2022-12-15T21:55:35.105Z,25.35
2022-12-15T21:58:02.345Z,25.65
2022-12-15T22:00:29.610Z,26.67
2022-12-15T22:02:56.949Z,26.48
2022-12-15T22:05:25.780Z,27.13
2022-12-15T22:07:53.030Z,26.95
2022-12-15T22:10:22.012Z,25.17
2022-12-15T22:15:38.920Z,25.77
2022-12-15T22:18:11.702Z,25.90
2022-12-15T22:20:39.031Z,23.92
2022-12-15T22:23:06.289Z,25.65
2022-12-15T22:25:33.537Z,25.83
2022-12-15T22:28:01.113Z,26.98
2022-12-15T22:30:28.468Z,23.67
2022-12-15T22:32:55.734Z,22.73
2022-12-15T22:35:24.648Z,25.75
2022-12-15T22:37:56.492Z,24.27
2022-12-15T22:40:24.445Z,24.05
2022-12-15T22:42:57.215Z,21.70
2022-12-15T22:45:24.850Z,20.42
2022-12-15T22:47:53.000Z,27.20
2022-12-15T22:50:24.076Z,25.55
2022-12-15T22:52:52.001Z,25.15
2022-12-15T22:55:21.167Z,22.15
2022-12-15T22:57:59.170Z,19.02
2022-12-15T23:00:26.415Z,21.65
2022-12-15T23:02:53.843Z,20.17
2022-12-15T23:05:21.408Z,21.98
2022-12-15T23:07:48.684Z,22.70
2022-12-15T23:10:36.065Z,24.17
2022-12-15T23:13:03.387Z,23.38
2022-12-15T23:15:51.784Z,24.52
2022-12-15T23:18:19.354Z,22.02
2022-12-15T23:20:46.614Z,26.00
2022-12-15T23:23:13.986Z,26.45
2022-12-15T23:25:41.285Z,24.83
2022-12-15T23:28:08.818Z,23.52
2022-12-15T23:30:36.150Z,25.70
2022-12-15T23:33:03.408Z,19.92
2022-12-15T23:35:30.638Z,24.55
2022-12-15T23:37:58.294Z,25.80
2022-12-15T23:40:25.567Z,22.08
2022-12-15T23:42:53.774Z,26.23
2022-12-15T23:45:21.493Z,25.65
2022-12-15T23:47:48.773Z,26.17
2022-12-15T23:50:16.072Z,20.90
2022-12-15T23:52:43.287Z,27.08
2022-12-15T23:55:10.618Z,27.08
2022-12-15T23:57:40.701Z,27.92
